Time;durP1;ratioP1;P1;durP2;ratioP2;P2;SDS_P1;SDS_P2;PMS_P1;PMS_P2;Temp;Humidity;BMP_temperature;BMP_pressure;BME280_temperature;BME280_humidity;BME280_pressure;Samples;Min_cycle;Max_cycle;Signal;HPM_P1;HPM_P2
2021/12/05 00:21:08;;;;;;;6.88;2.17;;;6.90;99.90;;;;;;5037594;22;20610;-79
2021/12/05 00:23:39;;;;;;;7.72;2.53;;;6.80;99.90;;;;;;5014988;28;20258;-79
2021/12/05 00:26:10;;;;;;;6.65;1.80;;;6.80;99.90;;;;;;5015481;28;20202;-79
2021/12/05 00:28:55;;;;;;;6.93;2.17;;;6.70;99.90;;;;;;5015619;28;20196;-79
2021/12/05 00:34:26;;;;;;;12.48;2.38;;;6.70;99.90;;;;;;5016410;28;20239;-79
2021/12/05 00:43:02;;;;;;;5.22;2.13;;;6.90;99.90;;;;;;5007173;28;20239;-79
2021/12/05 00:45:45;;;;;;;5.55;2.30;;;6.90;99.90;;;;;;5017774;28;20209;-79
2021/12/05 00:56:52;;;;;;;6.03;2.53;;;6.90;99.90;;;;;;5022989;28;20346;-78
2021/12/05 01:02:32;;;;;;;7.45;1.92;;;6.90;99.90;;;;;;4996930;28;20595;-78
2021/12/05 01:08:06;;;;;;;6.35;1.90;;;6.90;99.90;;;;;;4984059;28;20191;-78
2021/12/05 01:10:52;;;;;;;6.63;2.90;;;6.80;99.90;;;;;;5034346;28;20307;-79
2021/12/05 01:13:33;;;;;;;6.00;2.30;;;6.70;99.90;;;;;;5035013;28;20188;-78
2021/12/05 01:16:04;;;;;;;8.63;1.95;;;6.80;99.90;;;;;;5023344;28;20196;-78
2021/12/05 01:18:31;;;;;;;8.02;2.40;;;6.80;99.90;;;;;;5018754;28;20195;-78
2021/12/05 01:21:06;;;;;;;5.80;1.50;;;6.80;99.90;;;;;;5020330;28;20202;-78
2021/12/05 01:23:43;;;;;;;10.57;2.25;;;6.80;99.90;;;;;;5020014;28;20211;-79
2021/12/05 01:26:14;;;;;;;5.13;1.80;;;6.80;99.90;;;;;;5018276;28;20294;-78
2021/12/05 01:28:58;;;;;;;7.25;1.85;;;6.80;99.90;;;;;;5017353;28;20193;-78
2021/12/05 01:31:34;;;;;;;6.93;2.40;;;6.70;99.90;;;;;;5017561;28;20218;-78
2021/12/05 01:34:13;;;;;;;4.90;1.52;;;6.60;99.90;;;;;;5018189;28;20188;-77
2021/12/05 01:36:50;;;;;;;4.40;1.55;;;6.80;99.90;;;;;;5018401;28;20645;-78
2021/12/05 01:39:32;;;;;;;5.10;1.65;;;6.50;99.90;;;;;;5018252;28;20276;-77
2021/12/05 01:45:13;;;;;;;4.30;1.80;;;6.80;99.90;;;;;;5021859;28;20242;-78
2021/12/05 01:48:09;;;;;;;5.68;1.70;;;6.80;99.90;;;;;;5031536;28;20602;-78
2021/12/05 01:59:11;;;;;;;4.15;1.45;;;6.80;99.90;;;;;;5019051;28;20306;-79
2021/12/05 02:15:50;;;;;;;5.30;1.75;;;6.60;99.90;;;;;;5016505;28;20188;-78
2021/12/05 02:29:56;;;;;;;4.22;1.48;;;6.40;99.90;;;;;;5017114;28;20361;-79
2021/12/05 02:35:20;;;;;;;5.05;2.28;;;6.30;99.90;;;;;;5016620;28;20218;-78
2021/12/05 02:38:25;;;;;;;3.90;1.70;;;6.40;99.90;;;;;;5016439;28;20196;-79
2021/12/05 02:43:40;;;;;;;5.35;1.85;;;6.20;99.90;;;;;;5017625;28;20267;-78
2021/12/05 02:46:09;;;;;;;4.07;1.60;;;6.30;99.90;;;;;;5018247;28;20218;-77
2021/12/05 02:48:38;;;;;;;5.88;2.25;;;6.10;99.90;;;;;;5025081;28;20212;-80
2021/12/05 02:51:07;;;;;;;3.33;1.60;;;6.40;99.90;;;;;;5017913;28;20219;-78
2021/12/05 02:53:40;;;;;;;4.55;1.58;;;6.40;99.90;;;;;;5016250;28;20707;-78
2021/12/05 02:56:09;;;;;;;5.13;2.00;;;6.60;99.90;;;;;;5023430;28;20222;-78
2021/12/05 02:58:41;;;;;;;5.05;1.63;;;6.50;99.90;;;;;;5031290;28;20200;-78
2021/12/05 03:01:16;;;;;;;8.73;1.77;;;6.50;99.90;;;;;;5016290;28;20227;-78
2021/12/05 03:03:43;;;;;;;8.50;1.50;;;6.50;99.90;;;;;;5015989;28;20211;-78
2021/12/05 03:06:16;;;;;;;4.32;1.55;;;6.40;99.90;;;;;;5015762;28;20239;-78
2021/12/05 03:08:45;;;;;;;5.28;1.52;;;6.50;99.90;;;;;;5015659;28;20232;-78
2021/12/05 03:11:12;;;;;;;6.70;1.52;;;6.50;99.90;;;;;;5016951;28;20211;-78
2021/12/05 03:13:40;;;;;;;7.05;1.48;;;6.40;99.90;;;;;;5030221;28;20225;-78
2021/12/05 03:16:09;;;;;;;5.57;1.70;;;6.30;99.90;;;;;;5025469;28;20203;-78
2021/12/05 03:18:36;;;;;;;4.38;1.27;;;6.40;99.90;;;;;;5030068;28;20276;-78
2021/12/05 03:21:04;;;;;;;3.80;1.60;;;6.30;99.90;;;;;;5022021;28;20192;-78
2021/12/05 03:23:31;;;;;;;7.35;1.35;;;6.40;99.90;;;;;;5019549;28;20612;-78
2021/12/05 03:25:59;;;;;;;5.20;2.10;;;6.40;99.90;;;;;;5018602;28;20237;-78
2021/12/05 03:28:26;;;;;;;6.53;1.50;;;6.40;99.90;;;;;;5017127;28;20207;-78
2021/12/05 03:30:54;;;;;;;6.85;1.85;;;6.60;99.90;;;;;;5017018;28;20208;-78
2021/12/05 03:33:21;;;;;;;4.68;1.35;;;6.50;99.90;;;;;;5025278;28;20717;-80
2021/12/05 03:35:48;;;;;;;6.75;2.08;;;6.60;99.90;;;;;;5021994;28;20212;-78
2021/12/05 03:38:15;;;;;;;5.68;2.10;;;6.50;99.90;;;;;;5025203;28;20218;-78
2021/12/05 03:40:42;;;;;;;4.93;1.70;;;6.60;99.90;;;;;;5028576;28;20262;-78
2021/12/05 03:43:13;;;;;;;6.40;2.42;;;6.50;99.90;;;;;;5020044;28;20223;-78
2021/12/05 03:45:43;;;;;;;4.13;1.23;;;6.20;99.90;;;;;;5023338;28;20195;-78
2021/12/05 03:48:12;;;;;;;3.75;1.90;;;6.50;99.90;;;;;;5029004;28;20694;-78
2021/12/05 03:50:40;;;;;;;5.80;1.58;;;6.50;99.90;;;;;;5029333;28;20267;-78
2021/12/05 03:53:08;;;;;;;3.97;1.70;;;6.50;99.90;;;;;;5030783;28;20215;-78
2021/12/05 03:55:37;;;;;;;5.05;1.67;;;6.30;99.90;;;;;;5020095;28;20720;-78
2021/12/05 03:58:05;;;;;;;3.70;1.50;;;6.30;99.90;;;;;;5016434;28;20226;-78
2021/12/05 04:00:38;;;;;;;4.80;1.65;;;6.20;99.90;;;;;;5015463;28;20720;-78
2021/12/05 04:03:07;;;;;;;5.70;1.65;;;6.10;99.90;;;;;;5016104;28;20709;-79
2021/12/05 04:05:35;;;;;;;7.45;1.60;;;6.00;99.90;;;;;;5017277;28;20234;-78
2021/12/05 04:08:02;;;;;;;7.85;2.40;;;6.20;99.90;;;;;;5015775;28;20242;-78
2021/12/05 04:10:29;;;;;;;7.85;1.83;;;6.10;99.90;;;;;;5015303;28;20270;-78
2021/12/05 04:12:58;;;;;;;5.15;1.90;;;6.00;99.90;;;;;;5014830;28;20215;-78
2021/12/05 04:15:25;;;;;;;7.55;1.30;;;5.90;99.90;;;;;;5015557;28;20210;-78
2021/12/05 04:17:54;;;;;;;4.53;1.60;;;6.00;99.90;;;;;;5013403;28;20304;-78
2021/12/05 04:20:22;;;;;;;4.13;1.30;;;6.00;99.90;;;;;;5014159;28;20761;-78
2021/12/05 04:22:49;;;;;;;6.63;1.20;;;6.10;99.90;;;;;;5017637;28;20238;-79
2021/12/05 04:25:18;;;;;;;8.68;1.63;;;6.00;99.90;;;;;;5019551;28;20212;-79
2021/12/05 04:27:48;;;;;;;5.05;1.73;;;6.10;99.90;;;;;;5019308;28;20262;-79
2021/12/05 04:30:19;;;;;;;6.00;1.70;;;5.90;99.90;;;;;;5019711;28;20231;-79
2021/12/05 04:32:47;;;;;;;3.55;1.45;;;6.30;99.90;;;;;;5020012;28;20198;-79
2021/12/05 04:35:16;;;;;;;3.90;1.55;;;6.10;99.90;;;;;;5020669;28;20208;-79
2021/12/05 04:37:43;;;;;;;3.63;1.40;;;6.20;99.90;;;;;;5019383;28;20208;-79
2021/12/05 04:40:12;;;;;;;7.75;1.90;;;6.10;99.90;;;;;;5018929;28;20227;-79
2021/12/05 04:42:39;;;;;;;9.63;3.03;;;6.10;99.90;;;;;;5018437;28;20228;-79
2021/12/05 04:45:10;;;;;;;9.57;1.90;;;6.30;99.90;;;;;;5029245;28;20222;-79
2021/12/05 04:47:37;;;;;;;5.55;1.55;;;6.20;99.90;;;;;;5027135;28;20210;-79
2021/12/05 04:50:05;;;;;;;5.18;1.60;;;6.40;99.90;;;;;;5019630;28;20314;-79
2021/12/05 04:52:33;;;;;;;5.03;1.70;;;6.10;99.90;;;;;;5019368;28;20205;-79
2021/12/05 04:55:00;;;;;;;3.35;1.20;;;6.20;99.90;;;;;;5020079;28;20299;-79
2021/12/05 04:57:27;;;;;;;8.35;1.92;;;6.20;99.90;;;;;;5021665;28;20317;-79
2021/12/05 04:59:54;;;;;;;3.90;1.40;;;6.20;99.90;;;;;;5018631;28;20243;-79
2021/12/05 05:02:21;;;;;;;3.65;1.30;;;6.30;99.90;;;;;;5020740;28;20238;-79
2021/12/05 05:04:49;;;;;;;5.57;1.70;;;6.30;99.90;;;;;;5020090;28;20211;-79
2021/12/05 05:07:22;;;;;;;7.00;1.75;;;6.30;99.90;;;;;;5035614;28;20216;-78
2021/12/05 05:09:52;;;;;;;6.25;1.52;;;6.20;99.90;;;;;;5023085;28;20232;-79
2021/12/05 05:12:19;;;;;;;5.90;1.13;;;6.20;99.90;;;;;;5018127;28;20282;-79
2021/12/05 05:14:47;;;;;;;6.45;1.80;;;6.00;99.90;;;;;;5017847;28;20207;-79
2021/12/05 05:17:14;;;;;;;5.15;1.35;;;6.10;99.90;;;;;;5026491;28;20271;-79
2021/12/05 05:19:45;;;;;;;4.93;1.35;;;5.90;99.90;;;;;;5038814;28;20281;-78
2021/12/05 05:22:23;;;;;;;4.15;1.08;;;5.80;99.90;;;;;;5023827;28;20230;-79
2021/12/05 05:30:51;;;;;;;4.60;1.50;;;5.70;99.90;;;;;;5030010;28;20234;-79
2021/12/05 05:44:33;;;;;;;4.55;1.30;;;5.50;99.90;;;;;;5023908;28;20281;-79
2021/12/05 05:47:05;;;;;;;5.28;1.30;;;5.50;99.90;;;;;;5028264;28;20194;-79
2021/12/05 05:49:46;;;;;;;5.63;1.83;;;5.40;99.90;;;;;;5017585;28;20580;-79
2021/12/05 05:52:13;;;;;;;5.60;1.70;;;5.40;99.90;;;;;;5017762;28;20195;-79
2021/12/05 05:54:44;;;;;;;3.50;1.45;;;5.40;99.90;;;;;;5017289;28;20207;-79
2021/12/05 05:57:19;;;;;;;3.67;1.83;;;5.50;99.90;;;;;;5017534;28;20196;-78
2021/12/05 05:59:52;;;;;;;3.03;1.23;;;5.60;99.90;;;;;;5018617;28;20602;-78
2021/12/05 06:05:04;;;;;;;4.47;1.20;;;5.50;99.90;;;;;;5020874;28;20265;-79
2021/12/05 06:07:31;;;;;;;4.50;1.70;;;5.20;99.90;;;;;;5021658;28;20207;-79
2021/12/05 06:09:57;;;;;;;4.68;1.73;;;5.20;99.90;;;;;;5021348;28;20248;-79
2021/12/05 06:12:26;;;;;;;5.22;1.77;;;5.40;99.90;;;;;;5023167;28;20208;-79
2021/12/05 06:14:53;;;;;;;6.15;1.30;;;5.40;99.90;;;;;;5030544;28;20215;-79
2021/12/05 06:17:19;;;;;;;6.15;2.30;;;5.20;99.90;;;;;;5022090;28;20294;-79
2021/12/05 06:19:46;;;;;;;6.35;1.13;;;5.20;99.90;;;;;;5045125;22;20221;-76
2021/12/05 06:22:13;;;;;;;4.85;1.58;;;5.20;99.90;;;;;;5014745;28;20192;-76
2021/12/05 06:24:40;;;;;;;4.70;1.52;;;5.40;99.90;;;;;;5014772;28;20227;-76
2021/12/05 06:27:07;;;;;;;9.23;1.40;;;5.10;99.90;;;;;;5014883;28;20218;-76
2021/12/05 06:29:37;;;;;;;5.00;1.88;;;5.40;99.90;;;;;;5014730;28;20564;-76
2021/12/05 06:32:32;;;;;;;5.20;1.80;;;5.40;99.90;;;;;;5014579;28;20302;-76
2021/12/05 06:37:50;;;;;;;5.45;1.65;;;5.20;99.90;;;;;;5014928;28;20191;-76
2021/12/05 06:40:25;;;;;;;4.10;1.45;;;5.20;99.90;;;;;;5014846;28;20318;-77
2021/12/05 06:42:59;;;;;;;4.13;1.38;;;5.30;99.90;;;;;;5014929;28;20614;-77
2021/12/05 06:48:11;;;;;;;3.45;1.30;;;5.10;99.90;;;;;;5013092;28;20569;-77
2021/12/05 06:50:38;;;;;;;3.05;1.30;;;5.10;99.90;;;;;;5015881;28;20323;-76
2021/12/05 06:53:07;;;;;;;5.68;1.42;;;5.10;99.90;;;;;;5014319;28;20298;-76
2021/12/05 06:55:34;;;;;;;3.20;1.35;;;5.20;99.90;;;;;;5016214;28;20537;-75
2021/12/05 06:58:01;;;;;;;4.80;1.55;;;4.90;99.90;;;;;;5014497;28;20208;-78
2021/12/05 07:00:31;;;;;;;4.35;1.58;;;5.00;99.90;;;;;;5017015;28;20790;-83
2021/12/05 07:02:58;;;;;;;5.40;1.20;;;5.20;99.90;;;;;;5017092;28;20265;-78
2021/12/05 07:08:10;;;;;;;5.75;1.77;;;5.10;99.90;;;;;;5014790;28;20257;-77
2021/12/05 07:10:44;;;;;;;4.20;1.88;;;5.00;99.90;;;;;;5015988;28;20281;-77
2021/12/05 07:16:02;;;;;;;5.00;1.65;;;5.00;99.90;;;;;;5015642;28;20287;-79
2021/12/05 07:21:26;;;;;;;6.40;1.90;;;4.70;99.90;;;;;;5014462;28;20273;-77
2021/12/05 07:24:02;;;;;;;4.53;1.52;;;5.10;99.90;;;;;;5015343;28;20583;-77
2021/12/05 07:26:45;;;;;;;3.92;1.55;;;5.00;99.90;;;;;;5015495;28;20286;-77
2021/12/05 07:40:25;;;;;;;4.10;1.80;;;5.20;99.90;;;;;;5018557;28;20241;-76
2021/12/05 07:42:52;;;;;;;5.43;2.55;;;5.20;99.90;;;;;;5017689;28;20246;-76
2021/12/05 07:45:23;;;;;;;3.83;1.67;;;5.40;99.90;;;;;;5016291;28;20579;-76
2021/12/05 07:47:53;;;;;;;5.32;1.83;;;5.40;99.90;;;;;;5014888;28;20188;-78
2021/12/05 07:50:28;;;;;;;6.15;1.83;;;5.30;99.90;;;;;;5016362;28;20254;-78
2021/12/05 07:53:04;;;;;;;4.88;2.53;;;5.40;99.90;;;;;;5016430;28;20695;-80
2021/12/05 07:55:37;;;;;;;4.00;1.65;;;5.30;99.90;;;;;;5016857;28;20214;-78
2021/12/05 07:58:13;;;;;;;6.40;1.92;;;5.10;99.90;;;;;;5021341;28;20199;-78
2021/12/05 08:00:52;;;;;;;4.88;1.95;;;5.20;99.90;;;;;;5019925;28;20222;-78
2021/12/05 08:14:29;;;;;;;4.47;1.65;;;5.20;99.90;;;;;;5017607;28;20222;-75
2021/12/05 08:16:57;;;;;;;4.43;1.90;;;5.10;99.90;;;;;;5017488;28;20245;-75
2021/12/05 08:19:26;;;;;;;4.43;1.90;;;5.20;99.90;;;;;;5017303;28;20215;-79
2021/12/05 08:21:55;;;;;;;5.97;2.15;;;5.20;99.90;;;;;;5016984;28;20207;-76
2021/12/05 08:24:22;;;;;;;7.85;3.17;;;5.10;99.90;;;;;;5017321;28;20317;-76
2021/12/05 08:26:51;;;;;;;5.13;1.85;;;5.30;99.90;;;;;;5018671;28;20558;-77
2021/12/05 08:29:25;;;;;;;4.93;1.90;;;5.40;99.90;;;;;;5018305;28;20584;-78
2021/12/05 08:32:16;;;;;;;5.65;2.15;;;5.50;99.90;;;;;;5018019;28;20249;-78
2021/12/05 08:34:59;;;;;;;3.97;2.05;;;5.40;99.90;;;;;;5017755;28;20228;-76
2021/12/05 09:24:50;;;;;;;3.67;1.67;;;6.00;99.90;;;;;;5019292;28;20227;-77
2021/12/05 09:30:35;;;;;;;4.30;2.10;;;6.00;99.90;;;;;;4992815;28;20211;-78
2021/12/05 10:06:47;;;;;;;3.67;1.20;;;7.00;99.90;;;;;;5017879;28;20192;-79
2021/12/05 10:09:37;;;;;;;6.30;1.40;;;6.90;99.90;;;;;;5016570;28;20197;-77
2021/12/05 10:12:26;;;;;;;6.97;1.45;;;7.00;99.90;;;;;;5016184;28;20642;-77
2021/12/05 10:15:23;;;;;;;3.60;1.17;;;7.30;99.90;;;;;;5016364;28;20213;-77
2021/12/05 10:26:42;;;;;;;6.03;1.45;;;7.20;99.90;;;;;;5016160;28;20568;-77
2021/12/05 10:35:19;;;;;;;3.05;1.08;;;7.70;99.90;;;;;;5020325;28;20232;-77
2021/12/05 10:37:51;;;;;;;4.57;1.13;;;7.60;99.90;;;;;;5017389;28;20729;-77
2021/12/05 10:40:21;;;;;;;6.22;1.50;;;7.70;99.90;;;;;;5021877;28;20233;-77
2021/12/05 10:42:51;;;;;;;3.92;1.27;;;7.60;99.90;;;;;;5019066;28;20257;-78
2021/12/05 10:45:35;;;;;;;4.57;1.30;;;7.50;99.90;;;;;;5016293;28;20229;-77
2021/12/05 10:48:07;;;;;;;5.95;1.65;;;7.60;99.90;;;;;;5016136;28;20288;-78
2021/12/05 10:50:40;;;;;;;4.75;1.60;;;7.50;99.90;;;;;;5015264;28;20239;-77
2021/12/05 10:53:36;;;;;;;3.92;1.13;;;7.50;99.90;;;;;;5015267;28;20204;-77
2021/12/05 10:56:13;;;;;;;3.97;1.30;;;7.30;99.90;;;;;;5017403;28;20197;-77
2021/12/05 10:58:49;;;;;;;3.60;1.15;;;7.40;99.90;;;;;;5015656;28;20203;-77
2021/12/05 11:01:20;;;;;;;4.57;1.10;;;7.50;99.90;;;;;;5015119;28;20238;-78
2021/12/05 11:03:51;;;;;;;4.40;1.10;;;7.50;99.90;;;;;;5016628;28;20188;-79
2021/12/05 11:06:25;;;;;;;2.60;1.00;;;7.40;99.90;;;;;;5016381;28;20848;-78
2021/12/05 11:08:55;;;;;;;3.90;1.05;;;7.80;99.90;;;;;;5016744;28;20194;-78
2021/12/05 11:11:22;;;;;;;3.65;1.05;;;7.80;99.90;;;;;;5015529;28;20248;-78
2021/12/05 11:13:50;;;;;;;3.75;0.95;;;8.00;99.90;;;;;;5015918;28;20213;-77
2021/12/05 11:16:40;;;;;;;4.70;1.65;;;7.90;99.90;;;;;;5016759;28;20580;-79
2021/12/05 11:19:16;;;;;;;3.67;1.35;;;8.00;99.90;;;;;;5024320;28;20277;-78
2021/12/05 11:21:51;;;;;;;3.50;1.23;;;8.00;99.90;;;;;;5016149;28;20241;-78
2021/12/05 11:24:22;;;;;;;3.90;1.20;;;8.00;99.90;;;;;;5016631;28;20315;-78
2021/12/05 11:27:25;;;;;;;3.17;1.20;;;8.20;99.90;;;;;;5016304;28;20708;-79
2021/12/05 11:30:10;;;;;;;4.85;1.40;;;8.20;99.90;;;;;;5015761;28;20733;-78
2021/12/05 11:32:41;;;;;;;4.68;1.42;;;8.00;99.90;;;;;;5017077;28;20238;-77
2021/12/05 11:35:36;;;;;;;4.82;1.40;;;7.60;99.90;;;;;;5014798;28;20200;-77
2021/12/05 11:38:09;;;;;;;3.63;1.10;;;7.90;99.90;;;;;;5014653;28;20207;-78
2021/12/05 11:40:51;;;;;;;4.80;1.10;;;7.80;99.90;;;;;;5014431;28;20227;-77
2021/12/05 11:43:22;;;;;;;7.20;1.30;;;7.80;99.90;;;;;;5014845;28;20220;-77
2021/12/05 11:45:56;;;;;;;4.35;1.35;;;7.70;99.90;;;;;;5016866;28;20221;-78
2021/12/05 11:48:26;;;;;;;3.30;1.20;;;7.80;99.90;;;;;;5015916;28;20193;-77
2021/12/05 11:50:54;;;;;;;3.60;1.30;;;7.80;99.90;;;;;;5015429;28;20320;-77
2021/12/05 11:53:35;;;;;;;3.88;1.20;;;7.80;99.90;;;;;;5015422;28;20304;-79
2021/12/05 11:56:02;;;;;;;4.22;1.50;;;7.80;99.90;;;;;;5015124;28;20208;-77
2021/12/05 11:58:29;;;;;;;5.30;1.50;;;8.00;99.90;;;;;;5017002;28;20686;-78
2021/12/05 12:01:05;;;;;;;5.35;1.80;;;8.10;99.90;;;;;;5014808;28;20235;-78
2021/12/05 12:03:33;;;;;;;5.32;1.48;;;7.70;99.90;;;;;;5015319;28;20200;-78
2021/12/05 12:06:03;;;;;;;4.82;1.80;;;8.00;99.90;;;;;;5015553;28;20731;-78
2021/12/05 12:08:31;;;;;;;7.40;2.70;;;7.90;99.90;;;;;;5015783;28;20267;-78
2021/12/05 12:11:01;;;;;;;4.57;1.55;;;8.00;99.90;;;;;;5016012;28;20316;-78
2021/12/05 12:13:34;;;;;;;3.13;1.13;;;8.00;99.90;;;;;;5015571;28;20209;-79
2021/12/05 12:16:07;;;;;;;4.00;1.60;;;8.00;99.90;;;;;;5015940;28;20195;-81
2021/12/05 12:18:37;;;;;;;7.68;2.15;;;7.90;99.90;;;;;;5014459;28;20244;-77
2021/12/05 12:21:11;;;;;;;4.35;1.70;;;7.90;99.90;;;;;;5013357;28;20659;-77
2021/12/05 12:23:38;;;;;;;3.58;1.60;;;8.10;99.90;;;;;;5013515;28;20651;-76
2021/12/05 12:26:09;;;;;;;6.93;2.05;;;7.70;99.90;;;;;;5015609;28;20605;-78
2021/12/05 12:28:36;;;;;;;4.65;2.25;;;8.00;99.90;;;;;;5015972;28;20200;-77
2021/12/05 12:31:05;;;;;;;4.65;1.30;;;8.00;99.90;;;;;;5016670;28;20236;-79
2021/12/05 12:33:35;;;;;;;5.85;1.40;;;8.20;99.90;;;;;;5017499;28;20304;-79
2021/12/05 12:36:02;;;;;;;3.22;1.50;;;8.30;99.90;;;;;;5025027;28;20268;-79
2021/12/05 12:38:38;;;;;;;3.58;1.45;;;8.30;99.90;;;;;;5037834;22;20324;-81
2021/12/05 12:41:12;;;;;;;4.07;1.40;;;8.30;99.90;;;;;;5016403;28;20197;-77
2021/12/05 12:43:44;;;;;;;4.55;1.08;;;8.20;99.90;;;;;;5020861;28;20188;-77
2021/12/05 12:46:25;;;;;;;3.70;1.27;;;8.20;99.90;;;;;;5019586;28;20219;-78
2021/12/05 12:48:55;;;;;;;4.10;1.60;;;8.30;99.90;;;;;;5018411;28;20311;-84
2021/12/05 12:51:34;;;;;;;4.22;2.03;;;8.20;99.90;;;;;;5020513;28;20657;-78
2021/12/05 12:54:08;;;;;;;4.75;1.60;;;8.20;99.90;;;;;;5019267;28;20280;-80
2021/12/05 12:56:36;;;;;;;4.05;1.38;;;8.20;99.90;;;;;;5018814;28;20197;-80
2021/12/05 12:59:06;;;;;;;3.00;1.30;;;8.20;99.90;;;;;;5019365;28;20228;-80
2021/12/05 13:04:34;;;;;;;2.83;1.08;;;8.10;99.90;;;;;;5008646;28;20196;-80
2021/12/05 13:07:24;;;;;;;2.70;0.90;;;8.00;99.90;;;;;;5018478;28;20201;-80
2021/12/05 13:10:04;;;;;;;3.00;1.15;;;8.30;99.90;;;;;;5017323;28;20229;-77
2021/12/05 13:12:33;;;;;;;3.35;1.13;;;8.30;99.90;;;;;;5015706;28;20201;-76
2021/12/05 13:15:07;;;;;;;2.75;1.00;;;8.10;99.90;;;;;;5017767;28;20201;-79
2021/12/05 13:17:39;;;;;;;4.28;1.50;;;7.90;99.90;;;;;;5018569;28;20196;-79
2021/12/05 13:20:07;;;;;;;3.33;0.82;;;8.10;99.90;;;;;;5018282;28;20213;-79
2021/12/05 13:22:34;;;;;;;2.50;0.80;;;8.00;99.90;;;;;;5018131;28;20209;-79
2021/12/05 13:25:07;;;;;;;3.13;1.20;;;8.30;99.90;;;;;;5018214;28;20232;-78
2021/12/05 13:27:36;;;;;;;4.03;1.40;;;8.10;99.90;;;;;;5018065;28;20197;-79
2021/12/05 13:30:04;;;;;;;3.40;1.40;;;8.00;99.90;;;;;;5017795;28;20651;-78
2021/12/05 13:32:32;;;;;;;3.72;1.63;;;7.90;99.90;;;;;;5017342;28;20208;-79
2021/12/05 13:35:02;;;;;;;5.05;2.15;;;8.10;99.90;;;;;;5018490;28;20258;-79
2021/12/05 13:37:44;;;;;;;3.67;1.48;;;8.10;99.90;;;;;;5021837;28;20212;-79
2021/12/05 13:40:19;;;;;;;5.50;1.70;;;8.10;99.90;;;;;;5023605;28;20199;-76
2021/12/05 13:42:50;;;;;;;3.30;1.10;;;8.10;99.90;;;;;;5023532;28;20193;-79
2021/12/05 13:45:39;;;;;;;5.30;2.08;;;8.10;99.90;;;;;;5026001;28;20256;-79
2021/12/05 13:48:20;;;;;;;6.03;1.50;;;8.00;99.90;;;;;;5021650;28;20311;-79
2021/12/05 13:50:57;;;;;;;4.28;1.40;;;8.00;99.90;;;;;;5019310;28;20202;-80
2021/12/05 13:53:45;;;;;;;3.17;1.30;;;7.80;99.90;;;;;;5016921;28;20323;-79
2021/12/05 13:56:23;;;;;;;3.33;1.10;;;8.20;99.90;;;;;;5016892;28;20199;-78
2021/12/05 13:58:51;;;;;;;2.80;0.90;;;8.30;99.90;;;;;;5015505;28;20239;-79
2021/12/05 14:01:22;;;;;;;3.10;0.85;;;8.10;99.90;;;;;;5016920;28;20307;-79
2021/12/05 14:04:05;;;;;;;4.15;1.30;;;8.10;99.90;;;;;;5017227;28;20196;-78
2021/12/05 14:06:42;;;;;;;11.00;1.80;;;8.10;99.90;;;;;;5016885;28;20212;-78
2021/12/05 14:09:19;;;;;;;7.07;1.85;;;7.90;99.90;;;;;;5016364;28;20595;-78
2021/12/05 14:11:52;;;;;;;3.60;1.20;;;7.70;99.90;;;;;;5017880;28;20283;-79
2021/12/05 14:14:21;;;;;;;4.25;1.35;;;7.80;99.90;;;;;;5017116;28;20758;-80
2021/12/05 14:16:50;;;;;;;5.03;1.50;;;7.70;99.90;;;;;;5017205;28;20327;-79
2021/12/05 14:19:19;;;;;;;3.63;1.45;;;7.90;99.90;;;;;;5017200;28;20296;-78
2021/12/05 14:21:49;;;;;;;3.65;1.20;;;7.90;99.90;;;;;;5017205;28;20208;-80
2021/12/05 14:24:18;;;;;;;3.92;1.38;;;7.90;99.90;;;;;;5021857;28;20196;-80
2021/12/05 14:26:54;;;;;;;3.28;1.13;;;7.80;99.90;;;;;;5019542;28;20228;-84
2021/12/05 14:29:23;;;;;;;4.00;1.70;;;7.70;99.90;;;;;;5018014;28;20234;-79
2021/12/05 14:31:56;;;;;;;3.00;1.05;;;7.80;99.90;;;;;;5018094;28;20666;-79
2021/12/05 14:34:23;;;;;;;4.38;1.80;;;7.70;99.90;;;;;;5019203;28;20199;-79
2021/12/05 14:36:57;;;;;;;4.72;1.58;;;7.90;99.90;;;;;;5020835;28;20276;-80
2021/12/05 14:39:29;;;;;;;3.90;1.90;;;7.80;99.90;;;;;;5019222;28;20339;-78
2021/12/05 14:42:00;;;;;;;5.80;2.22;;;7.80;99.90;;;;;;5017308;28;20669;-79
2021/12/05 14:44:27;;;;;;;4.45;2.28;;;7.80;99.90;;;;;;5017525;28;20202;-79
2021/12/05 14:47:03;;;;;;;6.07;2.80;;;7.70;99.90;;;;;;5018747;28;20264;-79
2021/12/05 14:49:33;;;;;;;3.92;1.70;;;7.70;99.90;;;;;;5018966;28;20227;-80
2021/12/05 14:52:01;;;;;;;3.38;1.40;;;7.70;99.90;;;;;;5021442;28;20193;-79
2021/12/05 14:54:33;;;;;;;4.82;2.25;;;7.70;99.90;;;;;;5025828;28;20231;-84
2021/12/05 14:57:07;;;;;;;6.22;2.03;;;7.50;99.90;;;;;;5023873;28;20196;-79
2021/12/05 14:59:34;;;;;;;4.47;1.63;;;7.50;99.90;;;;;;5023942;28;20232;-79
2021/12/05 15:02:01;;;;;;;2.85;1.40;;;7.60;99.90;;;;;;5020581;28;20219;-80
2021/12/05 15:04:32;;;;;;;8.45;1.73;;;7.60;99.90;;;;;;5018141;28;20213;-78
2021/12/05 15:07:00;;;;;;;3.83;1.85;;;7.80;99.90;;;;;;5015088;28;20325;-78
2021/12/05 15:09:34;;;;;;;5.95;1.67;;;7.90;99.90;;;;;;5016571;28;20233;-78
2021/12/05 15:12:07;;;;;;;4.03;1.45;;;7.40;99.90;;;;;;5017592;28;20205;-77
2021/12/05 15:14:36;;;;;;;4.28;2.33;;;7.80;99.90;;;;;;5016347;28;20188;-79
2021/12/05 15:17:07;;;;;;;4.40;2.30;;;7.50;99.90;;;;;;5017378;28;20216;-79
2021/12/05 15:19:35;;;;;;;5.80;1.95;;;7.60;99.90;;;;;;5015770;28;20228;-77
2021/12/05 15:22:05;;;;;;;8.00;1.90;;;7.60;99.90;;;;;;5019453;28;20211;-80
2021/12/05 15:24:32;;;;;;;3.67;1.70;;;7.30;99.90;;;;;;5019899;28;20206;-80
2021/12/05 15:27:01;;;;;;;3.38;1.70;;;7.40;99.90;;;;;;5018666;28;20254;-80
2021/12/05 15:29:30;;;;;;;3.58;1.60;;;7.30;99.90;;;;;;5016041;28;20232;-80
2021/12/05 15:31:58;;;;;;;3.67;1.92;;;7.30;99.90;;;;;;5017456;28;20228;-79
2021/12/05 15:34:31;;;;;;;5.60;2.05;;;7.20;99.90;;;;;;5015741;28;20209;-78
2021/12/05 15:37:05;;;;;;;5.40;2.03;;;7.20;99.90;;;;;;5017029;28;20184;-80
2021/12/05 15:39:32;;;;;;;5.22;2.30;;;7.10;99.90;;;;;;5016024;28;20235;-79
2021/12/05 15:42:00;;;;;;;5.57;2.40;;;7.00;99.90;;;;;;5020229;28;20251;-78
2021/12/05 15:44:35;;;;;;;4.43;2.63;;;6.90;99.90;;;;;;5028522;28;20212;-79
2021/12/05 15:47:09;;;;;;;5.45;3.45;;;6.90;99.90;;;;;;5026143;28;20255;-79
2021/12/05 15:49:48;;;;;;;4.93;2.30;;;7.00;99.90;;;;;;5025874;28;20260;-79
2021/12/05 15:52:16;;;;;;;4.90;2.63;;;7.10;99.90;;;;;;5024467;28;20320;-80
2021/12/05 15:54:44;;;;;;;6.18;2.63;;;7.00;99.90;;;;;;5024025;28;20211;-78
2021/12/05 15:57:17;;;;;;;4.20;2.22;;;6.70;99.90;;;;;;5018113;28;20669;-79
2021/12/05 15:59:47;;;;;;;4.70;2.35;;;6.90;99.90;;;;;;5020862;28;20232;-79
2021/12/05 16:02:17;;;;;;;5.32;2.40;;;6.90;99.90;;;;;;5026016;28;20203;-79
2021/12/05 16:04:45;;;;;;;6.47;2.97;;;6.80;99.90;;;;;;5023772;28;20188;-79
2021/12/05 16:07:13;;;;;;;5.40;3.35;;;6.80;99.90;;;;;;5020988;28;20300;-79
2021/12/05 16:09:42;;;;;;;7.90;4.80;;;6.70;99.90;;;;;;5017965;28;20240;-79
2021/12/05 16:12:12;;;;;;;6.80;3.88;;;6.70;99.90;;;;;;5017075;28;20223;-79
2021/12/05 16:14:43;;;;;;;6.22;3.70;;;6.80;99.90;;;;;;5018189;28;20210;-79
2021/12/05 16:17:22;;;;;;;7.47;3.47;;;6.80;99.90;;;;;;5019138;28;20288;-83
2021/12/05 16:20:21;;;;;;;4.55;2.83;;;6.90;99.90;;;;;;5018825;28;20606;-77
2021/12/05 16:23:07;;;;;;;7.35;3.20;;;6.80;99.90;;;;;;4938924;29;20569;-77
2021/12/05 16:25:35;;;;;;;4.93;2.47;;;6.80;99.90;;;;;;5013240;28;20682;-77
2021/12/05 16:28:05;;;;;;;6.15;3.33;;;6.70;99.90;;;;;;5019598;28;20235;-78
2021/12/05 16:30:34;;;;;;;6.55;2.80;;;6.70;99.90;;;;;;5018860;28;20220;-78
2021/12/05 16:33:05;;;;;;;4.32;2.63;;;6.50;99.90;;;;;;5017482;28;20208;-77
2021/12/05 16:35:35;;;;;;;4.80;2.65;;;6.70;99.90;;;;;;5017186;28;20704;-78
2021/12/05 16:38:17;;;;;;;7.13;3.30;;;6.80;99.90;;;;;;5017840;28;20272;-77
2021/12/05 16:40:59;;;;;;;4.85;2.35;;;6.60;99.90;;;;;;5019436;28;20202;-78
2021/12/05 16:43:27;;;;;;;6.03;2.83;;;6.80;99.90;;;;;;5018557;28;20212;-78
2021/12/05 16:46:05;;;;;;;7.15;3.13;;;6.80;99.90;;;;;;5019545;28;20317;-79
2021/12/05 16:48:35;;;;;;;5.72;3.13;;;6.60;99.90;;;;;;5019061;28;20380;-79
2021/12/05 16:51:18;;;;;;;6.90;3.25;;;6.60;99.90;;;;;;5020629;28;20191;-79
2021/12/05 16:53:48;;;;;;;6.88;3.20;;;6.40;99.90;;;;;;5019493;28;20196;-78
2021/12/05 16:56:33;;;;;;;5.40;2.65;;;6.60;99.90;;;;;;5019317;28;20294;-78
2021/12/05 16:59:06;;;;;;;6.97;3.05;;;6.70;99.90;;;;;;5019811;28;20231;-79
2021/12/05 17:01:33;;;;;;;4.43;2.50;;;6.80;99.90;;;;;;5020177;28;20196;-80
2021/12/05 17:04:01;;;;;;;5.22;2.25;;;6.90;99.90;;;;;;5018815;28;20216;-78
2021/12/05 17:06:29;;;;;;;7.68;4.65;;;7.00;99.90;;;;;;5019175;28;20219;-80
2021/12/05 17:08:56;;;;;;;7.53;4.28;;;7.00;99.90;;;;;;5018794;28;20284;-80
2021/12/05 17:11:26;;;;;;;8.18;4.20;;;6.80;99.90;;;;;;5020395;28;20630;-81
2021/12/05 17:13:55;;;;;;;11.25;4.57;;;6.90;99.90;;;;;;5021250;28;20239;-80
2021/12/05 17:16:25;;;;;;;7.18;4.35;;;6.70;99.90;;;;;;5020896;28;20233;-81
2021/12/05 17:18:58;;;;;;;10.65;4.57;;;6.70;99.90;;;;;;5019298;28;20234;-78
2021/12/05 17:21:29;;;;;;;8.18;4.35;;;7.00;99.90;;;;;;5018396;28;20199;-78
2021/12/05 17:23:58;;;;;;;7.20;4.97;;;6.70;99.90;;;;;;5018120;28;20203;-78
2021/12/05 17:26:28;;;;;;;8.07;4.60;;;6.70;99.90;;;;;;5017919;28;20232;-78
2021/12/05 17:29:01;;;;;;;8.60;5.00;;;6.80;99.90;;;;;;5016555;28;20230;-78